sensor_id;sensor_type;location;lat;lon;timestamp;pressure;altitude;pressure_sealevel;temperature;humidity
69980;BME280;57318;56.232;43.944;2023-06-14T00:01:52;99626.38;;;13.32;48.08
69980;BME280;57318;56.232;43.944;2023-06-14T00:04:18;99622.50;;;13.37;48.20
69980;BME280;57318;56.232;43.944;2023-06-14T00:06:46;99621.22;;;13.41;48.09
69980;BME280;57318;56.232;43.944;2023-06-14T00:09:15;99610.53;;;13.41;47.97
69980;BME280;57318;56.232;43.944;2023-06-14T00:11:43;99617.56;;;13.42;47.90
69980;BME280;57318;56.232;43.944;2023-06-14T00:14:09;99617.44;;;13.43;47.86
69980;BME280;57318;56.232;43.944;2023-06-14T00:16:35;99608.59;;;13.43;48.04
69980;BME280;57318;56.232;43.944;2023-06-14T00:19:02;99613.22;;;13.41;48.19
69980;BME280;57318;56.232;43.944;2023-06-14T00:21:31;99616.16;;;13.38;48.49
69980;BME280;57318;56.232;43.944;2023-06-14T00:23:58;99612.78;;;13.35;48.26
69980;BME280;57318;56.232;43.944;2023-06-14T00:26:24;99617.53;;;13.32;48.44
69980;BME280;57318;56.232;43.944;2023-06-14T00:28:52;99619.50;;;13.30;48.37
69980;BME280;57318;56.232;43.944;2023-06-14T00:31:18;99624.25;;;13.26;48.68
69980;BME280;57318;56.232;43.944;2023-06-14T00:33:43;99620.88;;;13.24;48.89
69980;BME280;57318;56.232;43.944;2023-06-14T00:36:09;99621.97;;;13.22;48.96
69980;BME280;57318;56.232;43.944;2023-06-14T00:38:35;99613.41;;;13.18;48.86
69980;BME280;57318;56.232;43.944;2023-06-14T00:41:01;99613.69;;;13.15;48.79
69980;BME280;57318;56.232;43.944;2023-06-14T00:43:27;99617.31;;;13.14;49.03
69980;BME280;57318;56.232;43.944;2023-06-14T00:45:52;99617.44;;;13.12;48.97
69980;BME280;57318;56.232;43.944;2023-06-14T00:48:18;99617.44;;;13.12;48.63
69980;BME280;57318;56.232;43.944;2023-06-14T00:50:45;99620.13;;;13.12;48.63
69980;BME280;57318;56.232;43.944;2023-06-14T00:53:12;99620.97;;;13.13;48.87
69980;BME280;57318;56.232;43.944;2023-06-14T00:55:41;99617.44;;;13.12;48.93
69980;BME280;57318;56.232;43.944;2023-06-14T00:58:07;99619.28;;;13.12;49.00
69980;BME280;57318;56.232;43.944;2023-06-14T01:00:34;99616.75;;;13.10;49.29
69980;BME280;57318;56.232;43.944;2023-06-14T01:03:00;99616.75;;;13.10;49.10
69980;BME280;57318;56.232;43.944;2023-06-14T01:05:27;99612.25;;;13.11;49.03
69980;BME280;57318;56.232;43.944;2023-06-14T01:10:45;99615.25;;;13.17;48.89
69980;BME280;57318;56.232;43.944;2023-06-14T01:13:29;99606.50;;;13.15;49.19
69980;BME280;57318;56.232;43.944;2023-06-14T01:15:57;99617.63;;;13.21;49.07
69980;BME280;57318;56.232;43.944;2023-06-14T01:18:24;99617.50;;;13.22;49.09
69980;BME280;57318;56.232;43.944;2023-06-14T01:20:51;99620.03;;;13.24;48.99
69980;BME280;57318;56.232;43.944;2023-06-14T01:23:22;99616.09;;;13.28;48.94
69980;BME280;57318;56.232;43.944;2023-06-14T01:25:49;99620.09;;;13.33;48.79
69980;BME280;57318;56.232;43.944;2023-06-14T01:28:20;99608.00;;;13.39;48.72
69980;BME280;57318;56.232;43.944;2023-06-14T01:30:49;99617.03;;;13.48;48.19
69980;BME280;57318;56.232;43.944;2023-06-14T01:33:21;99613.41;;;13.59;47.99
69980;BME280;57318;56.232;43.944;2023-06-14T01:35:50;99614.97;;;13.71;47.60
69980;BME280;57318;56.232;43.944;2023-06-14T01:38:18;99606.00;;;13.82;47.41
69980;BME280;57318;56.232;43.944;2023-06-14T01:40:45;99599.50;;;13.94;46.76
69980;BME280;57318;56.232;43.944;2023-06-14T01:43:14;99604.72;;;14.05;46.79
69980;BME280;57318;56.232;43.944;2023-06-14T01:45:41;99608.63;;;14.21;46.45
69980;BME280;57318;56.232;43.944;2023-06-14T01:48:08;99603.00;;;14.34;46.10
69980;BME280;57318;56.232;43.944;2023-06-14T01:50:35;99608.19;;;14.45;45.78
69980;BME280;57318;56.232;43.944;2023-06-14T01:53:00;99607.31;;;14.54;45.85
69980;BME280;57318;56.232;43.944;2023-06-14T01:55:26;99602.66;;;14.66;45.21
69980;BME280;57318;56.232;43.944;2023-06-14T01:57:53;99608.84;;;14.76;45.02
69980;BME280;57318;56.232;43.944;2023-06-14T02:00:19;99603.59;;;14.85;44.73
69980;BME280;57318;56.232;43.944;2023-06-14T02:02:45;99602.88;;;14.92;44.58
69980;BME280;57318;56.232;43.944;2023-06-14T02:05:11;99604.81;;;15.00;44.74
69980;BME280;57318;56.232;43.944;2023-06-14T02:07:37;99607.59;;;15.08;44.50
69980;BME280;57318;56.232;43.944;2023-06-14T02:10:04;99610.50;;;15.15;44.40
69980;BME280;57318;56.232;43.944;2023-06-14T02:12:33;99615.97;;;15.23;44.20
69980;BME280;57318;56.232;43.944;2023-06-14T02:14:59;99613.53;;;15.30;43.69
69980;BME280;57318;56.232;43.944;2023-06-14T02:17:25;99614.78;;;15.36;43.48
69980;BME280;57318;56.232;43.944;2023-06-14T02:19:51;99619.81;;;15.39;43.46
69980;BME280;57318;56.232;43.944;2023-06-14T02:22:17;99621.38;;;15.41;43.50
69980;BME280;57318;56.232;43.944;2023-06-14T02:24:43;99621.75;;;15.46;43.35
69980;BME280;57318;56.232;43.944;2023-06-14T02:27:09;99625.16;;;15.48;43.19
69980;BME280;57318;56.232;43.944;2023-06-14T02:29:38;99623.59;;;15.46;43.21
69980;BME280;57318;56.232;43.944;2023-06-14T02:32:04;99627.19;;;15.55;43.41
69980;BME280;57318;56.232;43.944;2023-06-14T02:34:33;99630.28;;;15.60;42.93
69980;BME280;57318;56.232;43.944;2023-06-14T02:37:02;99630.53;;;15.66;42.99
69980;BME280;57318;56.232;43.944;2023-06-14T02:39:31;99629.91;;;15.73;43.13
69980;BME280;57318;56.232;43.944;2023-06-14T02:41:56;99630.44;;;15.76;43.07
69980;BME280;57318;56.232;43.944;2023-06-14T02:44:26;99635.22;;;15.82;42.32
69980;BME280;57318;56.232;43.944;2023-06-14T02:46:55;99630.09;;;15.89;42.15
69980;BME280;57318;56.232;43.944;2023-06-14T02:49:22;99630.50;;;15.94;42.24
69980;BME280;57318;56.232;43.944;2023-06-14T02:51:47;99628.41;;;16.06;42.14
69980;BME280;57318;56.232;43.944;2023-06-14T02:54:13;99621.63;;;16.12;41.48
69980;BME280;57318;56.232;43.944;2023-06-14T02:56:39;99628.03;;;16.19;41.58
69980;BME280;57318;56.232;43.944;2023-06-14T02:59:06;99623.59;;;16.28;41.47
69980;BME280;57318;56.232;43.944;2023-06-14T03:01:33;99628.03;;;16.37;41.35
69980;BME280;57318;56.232;43.944;2023-06-14T03:04:04;99618.81;;;16.39;41.00
69980;BME280;57318;56.232;43.944;2023-06-14T03:06:30;99628.38;;;16.42;40.36
69980;BME280;57318;56.232;43.944;2023-06-14T03:08:57;99625.75;;;16.50;40.49
69980;BME280;57318;56.232;43.944;2023-06-14T03:11:26;99622.84;;;16.62;40.19
69980;BME280;57318;56.232;43.944;2023-06-14T03:13:52;99624.19;;;16.66;40.40
69980;BME280;57318;56.232;43.944;2023-06-14T03:16:18;99623.03;;;16.68;40.25
69980;BME280;57318;56.232;43.944;2023-06-14T03:18:51;99620.88;;;16.72;40.43
69980;BME280;57318;56.232;43.944;2023-06-14T03:21:18;99609.16;;;16.73;39.80
69980;BME280;57318;56.232;43.944;2023-06-14T03:23:45;99608.28;;;16.72;39.44
69980;BME280;57318;56.232;43.944;2023-06-14T03:26:10;99604.81;;;16.80;39.28
69980;BME280;57318;56.232;43.944;2023-06-14T03:28:40;99614.97;;;16.86;39.23
69980;BME280;57318;56.232;43.944;2023-06-14T03:31:07;99614.31;;;16.92;39.13
69980;BME280;57318;56.232;43.944;2023-06-14T03:33:34;99612.84;;;16.98;39.49
69980;BME280;57318;56.232;43.944;2023-06-14T03:36:00;99613.03;;;17.05;38.94
69980;BME280;57318;56.232;43.944;2023-06-14T03:38:25;99614.09;;;17.12;39.21
69980;BME280;57318;56.232;43.944;2023-06-14T03:40:51;99610.47;;;17.29;40.15
69980;BME280;57318;56.232;43.944;2023-06-14T03:43:17;99609.88;;;17.52;39.50
69980;BME280;57318;56.232;43.944;2023-06-14T03:45:42;99612.94;;;17.74;39.21
69980;BME280;57318;56.232;43.944;2023-06-14T03:48:09;99609.63;;;17.96;39.23
69980;BME280;57318;56.232;43.944;2023-06-14T03:50:35;99608.16;;;18.27;38.63
69980;BME280;57318;56.232;43.944;2023-06-14T03:53:04;99609.63;;;18.54;37.85
69980;BME280;57318;56.232;43.944;2023-06-14T03:55:29;99604.38;;;18.77;36.48
69980;BME280;57318;56.232;43.944;2023-06-14T03:57:57;99603.00;;;18.98;36.16
69980;BME280;57318;56.232;43.944;2023-06-14T04:00:23;99605.13;;;19.19;35.34
69980;BME280;57318;56.232;43.944;2023-06-14T04:02:48;99606.72;;;19.36;35.27
69980;BME280;57318;56.232;43.944;2023-06-14T04:05:14;99605.59;;;19.54;34.35
69980;BME280;57318;56.232;43.944;2023-06-14T04:07:45;99605.31;;;19.48;34.16
69980;BME280;57318;56.232;43.944;2023-06-14T04:10:12;99607.94;;;19.57;34.41
69980;BME280;57318;56.232;43.944;2023-06-14T04:12:39;99609.94;;;19.63;34.64
69980;BME280;57318;56.232;43.944;2023-06-14T04:15:05;99605.53;;;19.70;34.10
69980;BME280;57318;56.232;43.944;2023-06-14T04:17:32;99612.75;;;19.70;33.90
69980;BME280;57318;56.232;43.944;2023-06-14T04:20:01;99608.88;;;19.72;33.28
69980;BME280;57318;56.232;43.944;2023-06-14T04:22:30;99611.28;;;19.67;33.48
69980;BME280;57318;56.232;43.944;2023-06-14T04:24:56;99608.41;;;19.69;34.41
69980;BME280;57318;56.232;43.944;2023-06-14T04:27:23;99613.59;;;19.78;33.94
69980;BME280;57318;56.232;43.944;2023-06-14T04:29:52;99608.13;;;19.87;33.10
69980;BME280;57318;56.232;43.944;2023-06-14T04:32:26;99608.28;;;19.93;32.49
69980;BME280;57318;56.232;43.944;2023-06-14T04:34:55;99610.41;;;19.98;32.30
69980;BME280;57318;56.232;43.944;2023-06-14T04:37:21;99611.66;;;20.10;32.47
69980;BME280;57318;56.232;43.944;2023-06-14T04:39:48;99609.56;;;20.21;32.15
69980;BME280;57318;56.232;43.944;2023-06-14T04:42:14;99616.22;;;20.33;32.25
69980;BME280;57318;56.232;43.944;2023-06-14T04:44:42;99610.81;;;20.33;32.23
69980;BME280;57318;56.232;43.944;2023-06-14T04:47:09;99611.09;;;20.38;32.40
69980;BME280;57318;56.232;43.944;2023-06-14T04:49:38;99607.88;;;20.43;33.00
69980;BME280;57318;56.232;43.944;2023-06-14T04:52:06;99605.09;;;20.51;32.47
69980;BME280;57318;56.232;43.944;2023-06-14T04:54:32;99607.06;;;20.57;32.38
69980;BME280;57318;56.232;43.944;2023-06-14T04:56:59;99607.59;;;20.52;31.63
69980;BME280;57318;56.232;43.944;2023-06-14T04:59:25;99601.00;;;20.55;31.47
69980;BME280;57318;56.232;43.944;2023-06-14T05:01:51;99610.31;;;20.52;31.35
69980;BME280;57318;56.232;43.944;2023-06-14T05:04:18;99609.56;;;20.59;30.67
69980;BME280;57318;56.232;43.944;2023-06-14T05:06:45;99620.50;;;20.65;30.77
69980;BME280;57318;56.232;43.944;2023-06-14T05:09:14;99614.28;;;20.65;30.60
69980;BME280;57318;56.232;43.944;2023-06-14T05:11:41;99606.69;;;20.60;30.63
69980;BME280;57318;56.232;43.944;2023-06-14T05:14:13;99611.09;;;20.76;30.44
69980;BME280;57318;56.232;43.944;2023-06-14T05:16:39;99608.31;;;20.84;30.36
69980;BME280;57318;56.232;43.944;2023-06-14T05:19:06;99615.50;;;20.92;30.58
69980;BME280;57318;56.232;43.944;2023-06-14T05:21:32;99612.59;;;20.94;30.42
69980;BME280;57318;56.232;43.944;2023-06-14T05:26:25;99613.53;;;21.16;29.35
69980;BME280;57318;56.232;43.944;2023-06-14T05:28:56;99610.38;;;21.12;29.19
69980;BME280;57318;56.232;43.944;2023-06-14T05:31:23;99606.66;;;21.13;29.11
69980;BME280;57318;56.232;43.944;2023-06-14T05:33:50;99609.69;;;21.25;29.16
69980;BME280;57318;56.232;43.944;2023-06-14T05:36:16;99611.47;;;21.33;29.12
69980;BME280;57318;56.232;43.944;2023-06-14T05:38:41;99606.63;;;21.43;29.04
69980;BME280;57318;56.232;43.944;2023-06-14T05:41:07;99612.56;;;21.53;28.71
69980;BME280;57318;56.232;43.944;2023-06-14T05:43:32;99609.97;;;21.60;29.14
69980;BME280;57318;56.232;43.944;2023-06-14T05:45:58;99604.06;;;21.71;29.13
69980;BME280;57318;56.232;43.944;2023-06-14T05:48:24;99605.47;;;21.89;28.54
69980;BME280;57318;56.232;43.944;2023-06-14T05:50:50;99601.53;;;22.13;28.29
69980;BME280;57318;56.232;43.944;2023-06-14T05:53:17;99603.34;;;22.27;28.26
69980;BME280;57318;56.232;43.944;2023-06-14T05:55:43;99597.56;;;22.30;28.07
69980;BME280;57318;56.232;43.944;2023-06-14T05:58:09;99594.72;;;22.39;28.12
69980;BME280;57318;56.232;43.944;2023-06-14T06:00:36;99596.91;;;22.50;28.01
69980;BME280;57318;56.232;43.944;2023-06-14T06:03:04;99595.00;;;22.79;27.54
69980;BME280;57318;56.232;43.944;2023-06-14T06:05:30;99600.63;;;23.12;27.22
69980;BME280;57318;56.232;43.944;2023-06-14T06:07:56;99599.91;;;23.38;26.65
69980;BME280;57318;56.232;43.944;2023-06-14T06:10:21;99607.56;;;23.76;26.27
69980;BME280;57318;56.232;43.944;2023-06-14T06:12:47;99612.22;;;24.16;25.95
69980;BME280;57318;56.232;43.944;2023-06-14T06:15:13;99612.47;;;24.55;25.24
69980;BME280;57318;56.232;43.944;2023-06-14T06:17:39;99612.81;;;25.05;25.08
69980;BME280;57318;56.232;43.944;2023-06-14T06:20:06;99605.53;;;25.57;24.35
69980;BME280;57318;56.232;43.944;2023-06-14T06:22:34;99597.66;;;25.81;24.14
69980;BME280;57318;56.232;43.944;2023-06-14T06:24:59;99607.06;;;26.17;23.39
69980;BME280;57318;56.232;43.944;2023-06-14T06:27:25;99604.19;;;26.37;23.17
69980;BME280;57318;56.232;43.944;2023-06-14T06:29:51;99606.69;;;26.64;22.98
69980;BME280;57318;56.232;43.944;2023-06-14T06:32:18;99604.69;;;26.78;22.72
69980;BME280;57318;56.232;43.944;2023-06-14T06:34:44;99607.13;;;26.86;22.40
69980;BME280;57318;56.232;43.944;2023-06-14T06:37:10;99599.09;;;26.73;21.92
69980;BME280;57318;56.232;43.944;2023-06-14T06:39:36;99605.88;;;26.38;21.99
69980;BME280;57318;56.232;43.944;2023-06-14T06:42:02;99602.50;;;26.43;22.67
69980;BME280;57318;56.232;43.944;2023-06-14T06:44:27;99600.06;;;26.53;22.94
69980;BME280;57318;56.232;43.944;2023-06-14T06:46:53;99607.34;;;26.59;23.29
69980;BME280;57318;56.232;43.944;2023-06-14T06:49:19;99607.41;;;26.53;22.67
69980;BME280;57318;56.232;43.944;2023-06-14T06:51:59;99608.16;;;26.41;22.49
69980;BME280;57318;56.232;43.944;2023-06-14T06:54:26;99605.44;;;26.16;22.51
69980;BME280;57318;56.232;43.944;2023-06-14T06:56:51;99598.56;;;26.07;22.41
69980;BME280;57318;56.232;43.944;2023-06-14T06:59:17;99592.34;;;26.00;22.10
69980;BME280;57318;56.232;43.944;2023-06-14T07:01:43;99602.41;;;25.92;21.55
69980;BME280;57318;56.232;43.944;2023-06-14T07:04:08;99596.13;;;25.92;20.54
69980;BME280;57318;56.232;43.944;2023-06-14T07:06:34;99595.91;;;25.93;20.79
69980;BME280;57318;56.232;43.944;2023-06-14T07:09:00;99591.44;;;26.06;20.91
69980;BME280;57318;56.232;43.944;2023-06-14T07:11:27;99593.47;;;26.17;21.60
69980;BME280;57318;56.232;43.944;2023-06-14T07:13:56;99596.31;;;26.29;21.19
69980;BME280;57318;56.232;43.944;2023-06-14T07:16:22;99595.03;;;26.32;20.34
69980;BME280;57318;56.232;43.944;2023-06-14T07:18:48;99600.22;;;26.40;20.34
69980;BME280;57318;56.232;43.944;2023-06-14T07:21:14;99592.53;;;26.55;20.51
69980;BME280;57318;56.232;43.944;2023-06-14T07:23:40;99599.84;;;26.55;20.35
69980;BME280;57318;56.232;43.944;2023-06-14T07:26:06;99592.78;;;26.72;19.95
69980;BME280;57318;56.232;43.944;2023-06-14T07:28:32;99590.09;;;26.91;20.09
69980;BME280;57318;56.232;43.944;2023-06-14T07:30:57;99588.88;;;27.24;20.19
69980;BME280;57318;56.232;43.944;2023-06-14T07:33:23;99591.38;;;27.44;19.87
69980;BME280;57318;56.232;43.944;2023-06-14T07:35:49;99589.47;;;27.75;19.75
69980;BME280;57318;56.232;43.944;2023-06-14T07:38:15;99585.78;;;27.99;19.35
69980;BME280;57318;56.232;43.944;2023-06-14T07:40:41;99598.47;;;28.83;18.49
69980;BME280;57318;56.232;43.944;2023-06-14T07:43:06;99594.25;;;29.97;17.38
69980;BME280;57318;56.232;43.944;2023-06-14T07:45:32;99599.19;;;30.46;17.17
69980;BME280;57318;56.232;43.944;2023-06-14T07:47:58;99603.19;;;30.55;16.99
69980;BME280;57318;56.232;43.944;2023-06-14T07:50:23;99599.50;;;30.33;16.83
69980;BME280;57318;56.232;43.944;2023-06-14T07:52:49;99595.78;;;30.22;17.36
69980;BME280;57318;56.232;43.944;2023-06-14T07:55:15;99600.59;;;30.32;17.66
69980;BME280;57318;56.232;43.944;2023-06-14T07:57:41;99604.31;;;30.26;17.02
69980;BME280;57318;56.232;43.944;2023-06-14T08:00:08;99599.25;;;30.17;17.12
69980;BME280;57318;56.232;43.944;2023-06-14T08:02:36;99602.53;;;30.02;17.32
69980;BME280;57318;56.232;43.944;2023-06-14T08:05:02;99607.09;;;29.39;17.60
69980;BME280;57318;56.232;43.944;2023-06-14T08:07:29;99609.19;;;28.85;17.40
69980;BME280;57318;56.232;43.944;2023-06-14T08:09:55;99605.69;;;28.42;17.94
69980;BME280;57318;56.232;43.944;2023-06-14T08:12:20;99594.84;;;28.12;18.16
69980;BME280;57318;56.232;43.944;2023-06-14T08:14:46;99602.50;;;27.91;18.58
69980;BME280;57318;56.232;43.944;2023-06-14T08:17:12;99597.63;;;27.63;18.65
69980;BME280;57318;56.232;43.944;2023-06-14T08:19:38;99596.53;;;27.52;18.30
69980;BME280;57318;56.232;43.944;2023-06-14T08:22:03;99598.34;;;27.58;18.26
69980;BME280;57318;56.232;43.944;2023-06-14T08:24:29;99598.09;;;27.60;18.22
69980;BME280;57318;56.232;43.944;2023-06-14T08:26:55;99601.72;;;27.72;17.96
69980;BME280;57318;56.232;43.944;2023-06-14T08:29:22;99597.22;;;28.20;17.79
69980;BME280;57318;56.232;43.944;2023-06-14T08:31:47;99594.31;;;28.92;17.48
69980;BME280;57318;56.232;43.944;2023-06-14T08:34:14;99600.78;;;29.79;16.44
69980;BME280;57318;56.232;43.944;2023-06-14T08:36:39;99602.94;;;30.57;15.81
69980;BME280;57318;56.232;43.944;2023-06-14T08:39:06;99597.63;;;31.28;15.26
69980;BME280;57318;56.232;43.944;2023-06-14T08:41:35;99597.84;;;31.98;15.11
69980;BME280;57318;56.232;43.944;2023-06-14T08:44:01;99598.25;;;32.45;14.04
69980;BME280;57318;56.232;43.944;2023-06-14T08:46:26;99607.34;;;33.31;13.46
69980;BME280;57318;56.232;43.944;2023-06-14T08:48:55;99594.28;;;33.89;13.21
69980;BME280;57318;56.232;43.944;2023-06-14T08:51:25;99594.56;;;34.91;12.15
69980;BME280;57318;56.232;43.944;2023-06-14T08:53:54;99592.75;;;36.20;11.54
69980;BME280;57318;56.232;43.944;2023-06-14T08:56:25;99588.53;;;36.62;10.80
69980;BME280;57318;56.232;43.944;2023-06-14T08:58:53;99583.47;;;36.70;10.77
69980;BME280;57318;56.232;43.944;2023-06-14T09:01:20;99586.13;;;36.21;11.41
69980;BME280;57318;56.232;43.944;2023-06-14T09:03:48;99592.56;;;35.67;11.41
69980;BME280;57318;56.232;43.944;2023-06-14T09:06:14;99582.25;;;35.88;11.24
69980;BME280;57318;56.232;43.944;2023-06-14T09:08:45;99582.50;;;37.09;9.83
69980;BME280;57318;56.232;43.944;2023-06-14T09:11:12;99586.00;;;38.15;9.31
69980;BME280;57318;56.232;43.944;2023-06-14T09:13:39;99577.59;;;38.53;8.81
69980;BME280;57318;56.232;43.944;2023-06-14T09:16:05;99567.63;;;38.52;9.18
69980;BME280;57318;56.232;43.944;2023-06-14T09:18:40;99572.00;;;37.68;9.37
69980;BME280;57318;56.232;43.944;2023-06-14T09:21:07;99576.88;;;37.38;9.46
69980;BME280;57318;56.232;43.944;2023-06-14T09:23:40;99574.78;;;37.49;9.29
69980;BME280;57318;56.232;43.944;2023-06-14T09:26:14;99561.63;;;37.79;8.87
69980;BME280;57318;56.232;43.944;2023-06-14T09:31:15;99557.34;;;36.22;10.40
69980;BME280;57318;56.232;43.944;2023-06-14T09:33:42;99558.19;;;35.38;10.66
69980;BME280;57318;56.232;43.944;2023-06-14T09:36:21;99550.50;;;34.24;11.20
69980;BME280;57318;56.232;43.944;2023-06-14T09:38:58;99547.88;;;33.40;11.98
69980;BME280;57318;56.232;43.944;2023-06-14T09:41:32;99534.22;;;32.97;12.23
69980;BME280;57318;56.232;43.944;2023-06-14T09:44:03;99538.75;;;32.66;12.72
69980;BME280;57318;56.232;43.944;2023-06-14T09:46:30;99537.28;;;32.58;13.25
69980;BME280;57318;56.232;43.944;2023-06-14T09:48:58;99541.09;;;34.04;12.37
69980;BME280;57318;56.232;43.944;2023-06-14T09:51:25;99537.13;;;35.48;11.41
69980;BME280;57318;56.232;43.944;2023-06-14T09:53:52;99532.31;;;35.64;11.44
69980;BME280;57318;56.232;43.944;2023-06-14T09:56:23;99536.13;;;35.73;10.86
69980;BME280;57318;56.232;43.944;2023-06-14T09:58:57;99540.31;;;35.26;11.04
69980;BME280;57318;56.232;43.944;2023-06-14T10:01:28;99540.50;;;34.79;11.27
69980;BME280;57318;56.232;43.944;2023-06-14T10:04:05;99534.47;;;34.46;11.60
69980;BME280;57318;56.232;43.944;2023-06-14T10:06:36;99531.72;;;34.41;11.97
69980;BME280;57318;56.232;43.944;2023-06-14T10:09:04;99533.53;;;34.92;11.00
69980;BME280;57318;56.232;43.944;2023-06-14T10:11:35;99527.72;;;34.94;11.08
69980;BME280;57318;56.232;43.944;2023-06-14T10:14:03;99524.22;;;34.78;11.46
69980;BME280;57318;56.232;43.944;2023-06-14T10:16:35;99522.09;;;34.33;11.81
69980;BME280;57318;56.232;43.944;2023-06-14T10:22:08;99517.03;;;35.37;10.79
69980;BME280;57318;56.232;43.944;2023-06-14T10:24:40;99515.44;;;36.05;10.71
69980;BME280;57318;56.232;43.944;2023-06-14T10:27:09;99507.03;;;35.86;10.83
69980;BME280;57318;56.232;43.944;2023-06-14T10:30:07;99508.09;;;38.11;9.39
69980;BME280;57318;56.232;43.944;2023-06-14T10:32:33;99503.22;;;38.36;9.40
69980;BME280;57318;56.232;43.944;2023-06-14T10:35:05;99500.69;;;38.06;9.21
69980;BME280;57318;56.232;43.944;2023-06-14T10:37:35;99494.31;;;37.16;9.76
69980;BME280;57318;56.232;43.944;2023-06-14T10:40:01;99494.22;;;36.29;10.57
69980;BME280;57318;56.232;43.944;2023-06-14T10:42:32;99488.59;;;34.76;11.69
69980;BME280;57318;56.232;43.944;2023-06-14T10:44:58;99485.69;;;34.11;12.34
69980;BME280;57318;56.232;43.944;2023-06-14T10:47:35;99480.47;;;33.84;12.58
69980;BME280;57318;56.232;43.944;2023-06-14T10:50:10;99483.78;;;33.75;12.62
69980;BME280;57318;56.232;43.944;2023-06-14T10:52:42;99474.38;;;34.12;12.60
69980;BME280;57318;56.232;43.944;2023-06-14T10:55:18;99486.22;;;35.93;11.34
69980;BME280;57318;56.232;43.944;2023-06-14T10:57:52;99477.94;;;38.23;9.65
69980;BME280;57318;56.232;43.944;2023-06-14T11:00:25;99475.53;;;39.50;8.86
69980;BME280;57318;56.232;43.944;2023-06-14T11:05:49;99469.81;;;38.55;9.59
69980;BME280;57318;56.232;43.944;2023-06-14T11:08:42;99471.03;;;37.36;10.71
69980;BME280;57318;56.232;43.944;2023-06-14T11:11:12;99473.97;;;35.75;11.42
69980;BME280;57318;56.232;43.944;2023-06-14T11:13:44;99461.06;;;34.56;12.53
69980;BME280;57318;56.232;43.944;2023-06-14T11:16:11;99461.97;;;33.48;13.25
69980;BME280;57318;56.232;43.944;2023-06-14T11:18:37;99455.50;;;32.96;13.65
69980;BME280;57318;56.232;43.944;2023-06-14T11:21:03;99456.50;;;32.64;14.16
69980;BME280;57318;56.232;43.944;2023-06-14T11:23:29;99457.28;;;34.15;13.26
69980;BME280;57318;56.232;43.944;2023-06-14T11:25:55;99457.38;;;35.36;12.86
69980;BME280;57318;56.232;43.944;2023-06-14T11:28:20;99446.47;;;35.89;12.16
69980;BME280;57318;56.232;43.944;2023-06-14T11:31:09;99458.53;;;37.38;10.79
69980;BME280;57318;56.232;43.944;2023-06-14T11:33:34;99463.53;;;38.91;9.86
69980;BME280;57318;56.232;43.944;2023-06-14T11:36:03;99458.88;;;39.73;9.07
69980;BME280;57318;56.232;43.944;2023-06-14T11:38:36;99462.13;;;40.61;8.52
69980;BME280;57318;56.232;43.944;2023-06-14T11:41:02;99462.78;;;41.41;8.37
69980;BME280;57318;56.232;43.944;2023-06-14T11:43:28;99453.34;;;41.90;7.68
69980;BME280;57318;56.232;43.944;2023-06-14T11:45:54;99455.88;;;42.68;8.07
69980;BME280;57318;56.232;43.944;2023-06-14T11:48:20;99454.38;;;43.34;6.88
69980;BME280;57318;56.232;43.944;2023-06-14T11:50:49;99447.88;;;43.30;7.20
69980;BME280;57318;56.232;43.944;2023-06-14T11:53:16;99448.81;;;43.13;6.80
69980;BME280;57318;56.232;43.944;2023-06-14T11:55:43;99447.88;;;42.79;6.47
69980;BME280;57318;56.232;43.944;2023-06-14T11:58:11;99438.09;;;42.94;7.03
69980;BME280;57318;56.232;43.944;2023-06-14T12:00:37;99446.59;;;43.06;6.97
69980;BME280;57318;56.232;43.944;2023-06-14T12:03:03;99435.13;;;43.20;6.70
69980;BME280;57318;56.232;43.944;2023-06-14T12:05:29;99437.84;;;43.29;6.53
69980;BME280;57318;56.232;43.944;2023-06-14T12:07:59;99427.78;;;43.16;7.04
69980;BME280;57318;56.232;43.944;2023-06-14T12:10:27;99422.19;;;43.16;7.21
69980;BME280;57318;56.232;43.944;2023-06-14T12:12:57;99426.41;;;42.71;7.06
69980;BME280;57318;56.232;43.944;2023-06-14T12:15:24;99430.53;;;41.88;6.85
69980;BME280;57318;56.232;43.944;2023-06-14T12:17:49;99425.00;;;41.79;6.95
69980;BME280;57318;56.232;43.944;2023-06-14T12:20:17;99426.09;;;41.87;7.45
69980;BME280;57318;56.232;43.944;2023-06-14T12:22:55;99418.31;;;42.10;7.32
69980;BME280;57318;56.232;43.944;2023-06-14T12:25:34;99414.50;;;41.58;7.47
69980;BME280;57318;56.232;43.944;2023-06-14T12:28:10;99416.81;;;41.65;7.35
69980;BME280;57318;56.232;43.944;2023-06-14T12:30:36;99410.06;;;41.75;7.14
69980;BME280;57318;56.232;43.944;2023-06-14T12:33:03;99411.66;;;41.93;7.83
69980;BME280;57318;56.232;43.944;2023-06-14T12:35:29;99402.78;;;41.91;7.34
69980;BME280;57318;56.232;43.944;2023-06-14T12:37:55;99408.59;;;41.77;7.69
69980;BME280;57318;56.232;43.944;2023-06-14T12:40:22;99401.25;;;41.55;7.60
69980;BME280;57318;56.232;43.944;2023-06-14T12:42:48;99399.94;;;41.26;7.69
69980;BME280;57318;56.232;43.944;2023-06-14T12:45:14;99401.91;;;41.08;7.82
69980;BME280;57318;56.232;43.944;2023-06-14T12:47:41;99393.84;;;40.81;8.11
69980;BME280;57318;56.232;43.944;2023-06-14T12:50:07;99394.81;;;40.76;8.45
69980;BME280;57318;56.232;43.944;2023-06-14T12:52:33;99385.53;;;40.89;8.35
69980;BME280;57318;56.232;43.944;2023-06-14T12:55:03;99379.94;;;41.16;7.69
69980;BME280;57318;56.232;43.944;2023-06-14T12:57:30;99383.72;;;40.93;7.81
69980;BME280;57318;56.232;43.944;2023-06-14T12:59:55;99381.88;;;40.80;8.22
69980;BME280;57318;56.232;43.944;2023-06-14T13:02:21;99383.69;;;40.85;8.13
69980;BME280;57318;56.232;43.944;2023-06-14T13:04:50;99382.22;;;40.87;7.84
69980;BME280;57318;56.232;43.944;2023-06-14T13:07:16;99376.47;;;40.84;8.13
69980;BME280;57318;56.232;43.944;2023-06-14T13:09:42;99373.50;;;40.45;8.61